Terminal Aerodrome Forecast
Issued by NWS Pendleton, OR

Home | Current Version | Previous Version | Text Only | Print | Product List | Glossary On
Versions: 1 2 3 4 5 6 7 8 9 10 11 12 13 14 15 16 17 18 19 20
000
FTUS46 KPDT 271700
TAFPDT
TAF
KPDT 271720Z 2718/2818 18011KT P6SM -RA OVC035
     FM272000 22012G22KT 6SM -RA BR SCT020 OVC030
     FM280300 26015G25KT P6SM SCT040 BKN080
     FM281000 26014KT P6SM VCSH SCT030 OVC040
     FM281200 27015KT P6SM -SN OVC040=

USA.gov is the U.S. government's official web portal to all federal, state and local government web resources and services.